sensor_id;sensor_type;location;lat;lon;timestamp;pressure;altitude;pressure_sealevel;temperature;humidity
18509;BME280;9383;50.928;12.116;2022-07-12T00:00:20;99511.13;;;15.81;84.27
18509;BME280;9383;50.928;12.116;2022-07-12T00:02:47;99523.41;;;15.85;84.29
18509;BME280;9383;50.928;12.116;2022-07-12T00:05:13;99525.19;;;15.85;84.34
18509;BME280;9383;50.928;12.116;2022-07-12T00:07:54;99508.78;;;15.73;84.23
18509;BME280;9383;50.928;12.116;2022-07-12T00:10:21;99472.56;;;15.49;84.55
18509;BME280;9383;50.928;12.116;2022-07-12T00:12:47;99475.25;;;15.49;85.04
18509;BME280;9383;50.928;12.116;2022-07-12T00:15:16;99480.66;;;15.47;85.23
18509;BME280;9383;50.928;12.116;2022-07-12T00:17:42;99474.41;;;15.46;85.12
18509;BME280;9383;50.928;12.116;2022-07-12T00:20:09;99505.63;;;15.65;85.22
18509;BME280;9383;50.928;12.116;2022-07-12T00:22:35;99530.47;;;15.67;85.10
18509;BME280;9383;50.928;12.116;2022-07-12T00:25:01;99520.06;;;15.61;85.11
18509;BME280;9383;50.928;12.116;2022-07-12T00:27:27;99516.75;;;15.56;84.94
18509;BME280;9383;50.928;12.116;2022-07-12T00:29:54;99531.78;;;15.58;85.12
18509;BME280;9383;50.928;12.116;2022-07-12T00:32:20;99467.63;;;15.20;84.97
18509;BME280;9383;50.928;12.116;2022-07-12T00:34:47;99530.16;;;15.54;85.25
18509;BME280;9383;50.928;12.116;2022-07-12T00:37:13;99490.22;;;15.32;85.19
18509;BME280;9383;50.928;12.116;2022-07-12T00:39:40;99530.53;;;15.46;85.27
18509;BME280;9383;50.928;12.116;2022-07-12T00:42:06;99530.69;;;15.43;85.17
18509;BME280;9383;50.928;12.116;2022-07-12T00:44:32;99518.75;;;15.31;85.51
18509;BME280;9383;50.928;12.116;2022-07-12T00:47:01;99524.91;;;15.33;85.47
18509;BME280;9383;50.928;12.116;2022-07-12T00:51:59;99527.97;;;15.24;85.64
18509;BME280;9383;50.928;12.116;2022-07-12T00:54:25;99498.69;;;15.02;85.63
18509;BME280;9383;50.928;12.116;2022-07-12T00:56:51;99509.38;;;15.02;85.95
18509;BME280;9383;50.928;12.116;2022-07-12T00:59:18;99502.50;;;14.96;86.15
18509;BME280;9383;50.928;12.116;2022-07-12T01:01:45;99509.72;;;14.94;86.33
18509;BME280;9383;50.928;12.116;2022-07-12T01:04:11;99440.56;;;14.46;86.11
18509;BME280;9383;50.928;12.116;2022-07-12T01:06:37;99524.00;;;14.93;86.17
18509;BME280;9383;50.928;12.116;2022-07-12T01:09:03;99433.88;;;14.36;86.20
18509;BME280;9383;50.928;12.116;2022-07-12T01:11:29;99482.72;;;14.59;86.32
18509;BME280;9383;50.928;12.116;2022-07-12T01:13:56;99521.13;;;14.77;86.56
18509;BME280;9383;50.928;12.116;2022-07-12T01:16:24;99476.19;;;14.45;86.88
18509;BME280;9383;50.928;12.116;2022-07-12T01:18:50;99477.31;;;14.40;86.85
18509;BME280;9383;50.928;12.116;2022-07-12T01:21:19;99526.06;;;14.64;87.05
18509;BME280;9383;50.928;12.116;2022-07-12T01:23:46;99525.41;;;14.59;87.15
18509;BME280;9383;50.928;12.116;2022-07-12T01:26:13;99526.50;;;14.55;87.21
18509;BME280;9383;50.928;12.116;2022-07-12T01:28:40;99456.63;;;14.02;87.16
18509;BME280;9383;50.928;12.116;2022-07-12T01:31:06;99451.56;;;13.96;87.08
18509;BME280;9383;50.928;12.116;2022-07-12T01:33:33;99522.84;;;14.35;87.40
18509;BME280;9383;50.928;12.116;2022-07-12T01:36:00;99529.91;;;14.36;87.74
18509;BME280;9383;50.928;12.116;2022-07-12T01:38:26;99510.00;;;14.23;87.99
18509;BME280;9383;50.928;12.116;2022-07-12T01:40:53;99524.09;;;14.26;88.50
18509;BME280;9383;50.928;12.116;2022-07-12T01:43:18;99481.81;;;13.95;88.49
18509;BME280;9383;50.928;12.116;2022-07-12T01:45:45;99450.69;;;13.73;88.49
18509;BME280;9383;50.928;12.116;2022-07-12T01:48:11;99492.66;;;13.90;88.78
18509;BME280;9383;50.928;12.116;2022-07-12T01:50:37;99513.44;;;14.04;89.06
18509;BME280;9383;50.928;12.116;2022-07-12T01:53:06;99522.16;;;14.07;88.94
18509;BME280;9383;50.928;12.116;2022-07-12T01:55:33;99451.28;;;13.57;89.05
18509;BME280;9383;50.928;12.116;2022-07-12T01:58:00;99481.81;;;13.72;89.28
18509;BME280;9383;50.928;12.116;2022-07-12T02:00:26;99511.31;;;13.90;89.44
18509;BME280;9383;50.928;12.116;2022-07-12T02:02:52;99470.75;;;13.59;89.49
18509;BME280;9383;50.928;12.116;2022-07-12T02:05:29;99507.69;;;13.69;89.42
18509;BME280;9383;50.928;12.116;2022-07-12T02:07:55;99532.81;;;13.85;89.12
18509;BME280;9383;50.928;12.116;2022-07-12T02:10:22;99532.13;;;13.80;89.18
18509;BME280;9383;50.928;12.116;2022-07-12T02:12:48;99448.94;;;13.24;88.97
18509;BME280;9383;50.928;12.116;2022-07-12T02:15:14;99540.34;;;13.74;89.23
18509;BME280;9383;50.928;12.116;2022-07-12T02:17:40;99462.34;;;13.22;89.21
18509;BME280;9383;50.928;12.116;2022-07-12T02:20:09;99524.91;;;13.60;89.85
18509;BME280;9383;50.928;12.116;2022-07-12T02:22:37;99449.31;;;13.15;89.89
18509;BME280;9383;50.928;12.116;2022-07-12T02:25:03;99515.63;;;13.46;90.16
18509;BME280;9383;50.928;12.116;2022-07-12T02:27:29;99478.31;;;13.22;90.11
18509;BME280;9383;50.928;12.116;2022-07-12T02:29:55;99488.88;;;13.24;90.16
18509;BME280;9383;50.928;12.116;2022-07-12T02:32:21;99481.16;;;13.18;90.19
18509;BME280;9383;50.928;12.116;2022-07-12T02:34:48;99500.47;;;13.23;90.35
18509;BME280;9383;50.928;12.116;2022-07-12T02:37:14;99528.38;;;13.36;90.56
18509;BME280;9383;50.928;12.116;2022-07-12T02:39:40;99546.97;;;13.38;90.94
18509;BME280;9383;50.928;12.116;2022-07-12T02:42:06;99526.31;;;13.19;90.59
18509;BME280;9383;50.928;12.116;2022-07-12T02:44:32;99516.56;;;13.20;91.07
18509;BME280;9383;50.928;12.116;2022-07-12T02:47:00;99551.56;;;13.33;91.07
18509;BME280;9383;50.928;12.116;2022-07-12T02:49:26;99549.03;;;13.30;91.00
18509;BME280;9383;50.928;12.116;2022-07-12T02:51:52;99547.47;;;13.24;91.34
18509;BME280;9383;50.928;12.116;2022-07-12T02:54:18;99557.19;;;13.25;91.26
18509;BME280;9383;50.928;12.116;2022-07-12T02:56:44;99563.50;;;13.22;91.42
18509;BME280;9383;50.928;12.116;2022-07-12T02:59:10;99501.03;;;12.82;91.79
18509;BME280;9383;50.928;12.116;2022-07-12T03:01:36;99539.38;;;13.02;91.55
18509;BME280;9383;50.928;12.116;2022-07-12T03:04:07;99518.56;;;12.88;91.65
18509;BME280;9383;50.928;12.116;2022-07-12T03:06:33;99516.91;;;12.85;91.33
18509;BME280;9383;50.928;12.116;2022-07-12T03:08:58;99557.75;;;13.09;91.50
18509;BME280;9383;50.928;12.116;2022-07-12T03:11:25;99551.06;;;12.98;91.69
18509;BME280;9383;50.928;12.116;2022-07-12T03:13:51;99569.44;;;13.05;91.75
18509;BME280;9383;50.928;12.116;2022-07-12T03:16:17;99555.66;;;12.92;91.78
18509;BME280;9383;50.928;12.116;2022-07-12T03:18:43;99537.53;;;12.78;92.06
18509;BME280;9383;50.928;12.116;2022-07-12T03:21:09;99517.53;;;12.66;92.33
18509;BME280;9383;50.928;12.116;2022-07-12T03:23:37;99574.16;;;12.97;92.54
18509;BME280;9383;50.928;12.116;2022-07-12T03:26:03;99549.81;;;12.83;92.77
18509;BME280;9383;50.928;12.116;2022-07-12T03:28:30;99569.09;;;12.89;92.58
18509;BME280;9383;50.928;12.116;2022-07-12T03:30:56;99527.47;;;12.61;92.39
18509;BME280;9383;50.928;12.116;2022-07-12T03:33:22;99539.69;;;12.67;92.47
18509;BME280;9383;50.928;12.116;2022-07-12T03:35:48;99583.31;;;12.88;92.60
18509;BME280;9383;50.928;12.116;2022-07-12T03:38:14;99519.03;;;12.48;92.38
18509;BME280;9383;50.928;12.116;2022-07-12T03:40:40;99539.88;;;12.61;92.76
18509;BME280;9383;50.928;12.116;2022-07-12T03:43:06;99506.13;;;12.36;92.47
18509;BME280;9383;50.928;12.116;2022-07-12T03:45:32;99561.06;;;12.64;92.47
18509;BME280;9383;50.928;12.116;2022-07-12T03:47:58;99548.91;;;12.57;92.10
18509;BME280;9383;50.928;12.116;2022-07-12T03:50:24;99577.59;;;12.74;91.94
18509;BME280;9383;50.928;12.116;2022-07-12T03:52:50;99503.69;;;12.30;91.81
18509;BME280;9383;50.928;12.116;2022-07-12T03:55:16;99529.88;;;12.42;91.93
18509;BME280;9383;50.928;12.116;2022-07-12T03:57:42;99525.38;;;12.44;91.94
18509;BME280;9383;50.928;12.116;2022-07-12T04:00:10;99491.63;;;12.19;92.20
18509;BME280;9383;50.928;12.116;2022-07-12T04:02:41;99547.28;;;12.52;92.26
18509;BME280;9383;50.928;12.116;2022-07-12T04:05:08;99557.84;;;12.54;92.43
18509;BME280;9383;50.928;12.116;2022-07-12T04:07:36;99587.22;;;12.78;92.41
18509;BME280;9383;50.928;12.116;2022-07-12T04:10:04;99575.91;;;12.71;92.69
18509;BME280;9383;50.928;12.116;2022-07-12T04:12:30;99600.41;;;12.81;93.31
18509;BME280;9383;50.928;12.116;2022-07-12T04:14:56;99577.72;;;12.71;92.87
18509;BME280;9383;50.928;12.116;2022-07-12T04:17:22;99599.44;;;12.84;93.35
18509;BME280;9383;50.928;12.116;2022-07-12T04:19:48;99597.56;;;12.87;93.55
18509;BME280;9383;50.928;12.116;2022-07-12T04:22:14;99549.59;;;12.62;93.68
18509;BME280;9383;50.928;12.116;2022-07-12T04:24:40;99569.72;;;12.71;94.09
18509;BME280;9383;50.928;12.116;2022-07-12T04:27:07;99596.50;;;12.91;93.94
18509;BME280;9383;50.928;12.116;2022-07-12T04:29:33;99584.13;;;12.90;94.20
18509;BME280;9383;50.928;12.116;2022-07-12T04:31:59;99521.41;;;12.56;94.47
18509;BME280;9383;50.928;12.116;2022-07-12T04:34:25;99517.84;;;12.57;95.03
18509;BME280;9383;50.928;12.116;2022-07-12T04:36:50;99523.00;;;12.62;95.31
18509;BME280;9383;50.928;12.116;2022-07-12T04:39:17;99582.91;;;13.01;95.65
18509;BME280;9383;50.928;12.116;2022-07-12T04:41:43;99594.91;;;13.13;96.17
18509;BME280;9383;50.928;12.116;2022-07-12T04:44:09;99566.03;;;13.00;96.74
18509;BME280;9383;50.928;12.116;2022-07-12T04:46:35;99546.59;;;12.98;97.26
18509;BME280;9383;50.928;12.116;2022-07-12T04:49:01;99554.28;;;13.07;98.16
18509;BME280;9383;50.928;12.116;2022-07-12T04:51:28;99556.53;;;13.18;99.14
18509;BME280;9383;50.928;12.116;2022-07-12T04:53:54;99630.47;;;13.62;100.00
18509;BME280;9383;50.928;12.116;2022-07-12T04:56:20;99601.28;;;13.59;100.00
18509;BME280;9383;50.928;12.116;2022-07-12T04:58:47;99538.38;;;13.30;100.00
18509;BME280;9383;50.928;12.116;2022-07-12T05:01:13;99579.75;;;13.66;100.00
18509;BME280;9383;50.928;12.116;2022-07-12T05:03:39;99550.66;;;13.59;100.00
18509;BME280;9383;50.928;12.116;2022-07-12T05:06:05;99569.47;;;13.78;100.00
18509;BME280;9383;50.928;12.116;2022-07-12T05:08:31;99558.69;;;13.82;100.00
18509;BME280;9383;50.928;12.116;2022-07-12T05:10:57;99622.31;;;14.37;100.00
18509;BME280;9383;50.928;12.116;2022-07-12T05:13:23;99597.28;;;14.41;100.00
18509;BME280;9383;50.928;12.116;2022-07-12T05:15:49;99568.97;;;14.37;100.00
18509;BME280;9383;50.928;12.116;2022-07-12T05:18:15;99567.94;;;14.41;100.00
18509;BME280;9383;50.928;12.116;2022-07-12T05:20:42;99622.09;;;14.88;100.00
18509;BME280;9383;50.928;12.116;2022-07-12T05:23:08;99583.59;;;14.71;100.00
18509;BME280;9383;50.928;12.116;2022-07-12T05:25:34;99572.81;;;14.74;100.00
18509;BME280;9383;50.928;12.116;2022-07-12T05:28:00;99594.13;;;14.97;100.00
18509;BME280;9383;50.928;12.116;2022-07-12T05:30:26;99641.50;;;15.35;100.00
18509;BME280;9383;50.928;12.116;2022-07-12T05:32:52;99618.38;;;15.33;100.00
18509;BME280;9383;50.928;12.116;2022-07-12T05:35:18;99628.41;;;15.49;100.00
18509;BME280;9383;50.928;12.116;2022-07-12T05:37:44;99589.81;;;15.36;100.00
18509;BME280;9383;50.928;12.116;2022-07-12T05:40:11;99628.50;;;15.67;100.00
18509;BME280;9383;50.928;12.116;2022-07-12T05:42:37;99594.31;;;15.54;100.00
18509;BME280;9383;50.928;12.116;2022-07-12T05:45:05;99595.72;;;15.63;100.00
18509;BME280;9383;50.928;12.116;2022-07-12T05:47:31;99650.28;;;15.99;99.97
18509;BME280;9383;50.928;12.116;2022-07-12T05:49:57;99626.69;;;15.88;99.01
18509;BME280;9383;50.928;12.116;2022-07-12T05:52:23;99644.91;;;15.99;97.38
18509;BME280;9383;50.928;12.116;2022-07-12T05:55:08;99605.66;;;15.80;96.59
18509;BME280;9383;50.928;12.116;2022-07-12T05:57:34;99661.13;;;16.15;96.22
18509;BME280;9383;50.928;12.116;2022-07-12T06:00:01;99623.13;;;15.87;95.22
18509;BME280;9383;50.928;12.116;2022-07-12T06:02:27;99660.03;;;16.19;95.21
18509;BME280;9383;50.928;12.116;2022-07-12T06:04:53;99616.59;;;15.95;95.26
18509;BME280;9383;50.928;12.116;2022-07-12T06:07:19;99602.50;;;15.91;95.15
18509;BME280;9383;50.928;12.116;2022-07-12T06:09:45;99623.91;;;16.10;94.75
18509;BME280;9383;50.928;12.116;2022-07-12T06:12:11;99656.50;;;16.38;94.47
18509;BME280;9383;50.928;12.116;2022-07-12T06:14:37;99634.59;;;16.29;94.03
18509;BME280;9383;50.928;12.116;2022-07-12T06:17:03;99638.41;;;16.43;93.54
18509;BME280;9383;50.928;12.116;2022-07-12T06:19:29;99624.97;;;16.44;93.50
18509;BME280;9383;50.928;12.116;2022-07-12T06:21:55;99602.13;;;16.37;92.41
18509;BME280;9383;50.928;12.116;2022-07-12T06:24:21;99626.09;;;16.58;92.19
18509;BME280;9383;50.928;12.116;2022-07-12T06:26:47;99669.16;;;16.90;92.17
18509;BME280;9383;50.928;12.116;2022-07-12T06:29:13;99619.03;;;16.74;92.04
18509;BME280;9383;50.928;12.116;2022-07-12T06:31:39;99626.63;;;16.84;90.92
18509;BME280;9383;50.928;12.116;2022-07-12T06:34:05;99600.38;;;16.73;90.37
18509;BME280;9383;50.928;12.116;2022-07-12T06:36:31;99658.19;;;17.14;90.16
18509;BME280;9383;50.928;12.116;2022-07-12T06:38:57;99635.34;;;17.07;89.67
18509;BME280;9383;50.928;12.116;2022-07-12T06:41:23;99641.94;;;17.17;89.01
18509;BME280;9383;50.928;12.116;2022-07-12T06:43:51;99634.84;;;17.16;88.18
18509;BME280;9383;50.928;12.116;2022-07-12T06:46:17;99630.44;;;17.15;87.34
18509;BME280;9383;50.928;12.116;2022-07-12T06:48:43;99654.41;;;17.36;87.30
18509;BME280;9383;50.928;12.116;2022-07-12T06:51:09;99691.75;;;17.56;87.27
18509;BME280;9383;50.928;12.116;2022-07-12T06:53:35;99655.56;;;17.48;87.03
18509;BME280;9383;50.928;12.116;2022-07-12T06:56:01;99684.84;;;17.70;86.76
18509;BME280;9383;50.928;12.116;2022-07-12T06:58:27;99668.63;;;17.71;86.60
18509;BME280;9383;50.928;12.116;2022-07-12T07:00:53;99641.63;;;17.58;86.86
18509;BME280;9383;50.928;12.116;2022-07-12T07:03:20;99603.94;;;17.44;86.55
18509;BME280;9383;50.928;12.116;2022-07-12T07:05:46;99681.44;;;18.00;85.79
18509;BME280;9383;50.928;12.116;2022-07-12T07:08:14;99630.53;;;17.82;85.37
18509;BME280;9383;50.928;12.116;2022-07-12T07:10:40;99672.53;;;18.17;84.95
18509;BME280;9383;50.928;12.116;2022-07-12T07:13:08;99641.97;;;18.02;83.82
18509;BME280;9383;50.928;12.116;2022-07-12T07:15:34;99685.97;;;18.33;83.72
18509;BME280;9383;50.928;12.116;2022-07-12T07:18:00;99673.56;;;18.31;81.48
18509;BME280;9383;50.928;12.116;2022-07-12T07:20:26;99682.16;;;18.37;81.85
18509;BME280;9383;50.928;12.116;2022-07-12T07:22:53;99680.84;;;18.45;82.31
18509;BME280;9383;50.928;12.116;2022-07-12T07:25:19;99669.50;;;18.39;81.24
18509;BME280;9383;50.928;12.116;2022-07-12T07:27:45;99666.63;;;18.42;81.01
18509;BME280;9383;50.928;12.116;2022-07-12T07:30:12;99670.72;;;18.50;80.97
18509;BME280;9383;50.928;12.116;2022-07-12T07:32:56;99671.31;;;18.55;79.40
18509;BME280;9383;50.928;12.116;2022-07-12T07:35:22;99643.53;;;18.40;78.91
18509;BME280;9383;50.928;12.116;2022-07-12T07:37:48;99652.25;;;18.44;78.39
18509;BME280;9383;50.928;12.116;2022-07-12T07:40:14;99660.75;;;18.52;75.87
18509;BME280;9383;50.928;12.116;2022-07-12T07:42:40;99667.78;;;18.54;76.19
18509;BME280;9383;50.928;12.116;2022-07-12T07:45:07;99639.72;;;18.44;76.75
18509;BME280;9383;50.928;12.116;2022-07-12T07:47:48;99682.56;;;18.78;77.22
18509;BME280;9383;50.928;12.116;2022-07-12T07:50:15;99677.97;;;18.80;76.80
18509;BME280;9383;50.928;12.116;2022-07-12T07:52:42;99664.34;;;18.83;77.17
18509;BME280;9383;50.928;12.116;2022-07-12T07:55:08;99665.81;;;18.89;76.70
18509;BME280;9383;50.928;12.116;2022-07-12T07:57:34;99667.13;;;18.97;76.81
18509;BME280;9383;50.928;12.116;2022-07-12T08:00:00;99661.06;;;19.10;76.63
18509;BME280;9383;50.928;12.116;2022-07-12T08:02:26;99667.44;;;19.23;76.42
18509;BME280;9383;50.928;12.116;2022-07-12T08:04:52;99657.28;;;19.29;75.46
18509;BME280;9383;50.928;12.116;2022-07-12T08:07:18;99612.44;;;18.98;74.87
18509;BME280;9383;50.928;12.116;2022-07-12T08:09:44;99609.41;;;19.05;74.47
18509;BME280;9383;50.928;12.116;2022-07-12T08:12:10;99669.63;;;19.47;74.88
18509;BME280;9383;50.928;12.116;2022-07-12T08:14:37;99652.63;;;19.47;74.61
18509;BME280;9383;50.928;12.116;2022-07-12T08:17:03;99633.59;;;19.50;74.42
18509;BME280;9383;50.928;12.116;2022-07-12T08:19:29;99643.59;;;19.62;74.57
18509;BME280;9383;50.928;12.116;2022-07-12T08:21:56;99662.84;;;19.85;73.40
18509;BME280;9383;50.928;12.116;2022-07-12T08:24:22;99625.38;;;19.67;72.61
18509;BME280;9383;50.928;12.116;2022-07-12T08:26:48;99660.09;;;20.01;72.63
18509;BME280;9383;50.928;12.116;2022-07-12T08:29:15;99623.72;;;19.79;71.00
18509;BME280;9383;50.928;12.116;2022-07-12T08:31:41;99638.19;;;19.93;70.59
18509;BME280;9383;50.928;12.116;2022-07-12T08:34:08;99639.41;;;20.02;71.09
18509;BME280;9383;50.928;12.116;2022-07-12T08:36:35;99627.59;;;20.04;71.59
18509;BME280;9383;50.928;12.116;2022-07-12T08:39:01;99604.72;;;19.97;71.92
18509;BME280;9383;50.928;12.116;2022-07-12T08:41:27;99579.34;;;19.87;71.66
18509;BME280;9383;50.928;12.116;2022-07-12T08:43:53;99572.81;;;19.91;71.29
18509;BME280;9383;50.928;12.116;2022-07-12T08:46:19;99609.91;;;20.15;67.89
18509;BME280;9383;50.928;12.116;2022-07-12T08:48:45;99617.31;;;20.11;65.34
18509;BME280;9383;50.928;12.116;2022-07-12T08:51:14;99627.41;;;20.07;63.30
18509;BME280;9383;50.928;12.116;2022-07-12T08:53:43;99588.38;;;19.71;63.71
18509;BME280;9383;50.928;12.116;2022-07-12T08:56:39;99653.94;;;20.14;64.52
18509;BME280;9383;50.928;12.116;2022-07-12T08:59:20;99632.78;;;20.07;64.84
18509;BME280;9383;50.928;12.116;2022-07-12T09:01:51;99600.41;;;19.94;64.92
18509;BME280;9383;50.928;12.116;2022-07-12T09:04:21;99604.81;;;20.10;65.26
18509;BME280;9383;50.928;12.116;2022-07-12T09:06:51;99646.38;;;20.48;64.74
18509;BME280;9383;50.928;12.116;2022-07-12T09:09:34;99590.25;;;20.27;66.26
18509;BME280;9383;50.928;12.116;2022-07-12T09:12:01;99625.47;;;20.51;63.07
18509;BME280;9383;50.928;12.116;2022-07-12T09:14:27;99587.56;;;20.27;63.42
18509;BME280;9383;50.928;12.116;2022-07-12T09:17:05;99604.56;;;20.42;63.42
18509;BME280;9383;50.928;12.116;2022-07-12T09:19:36;99618.88;;;20.43;62.98
18509;BME280;9383;50.928;12.116;2022-07-12T09:22:03;99656.16;;;20.63;62.56
18509;BME280;9383;50.928;12.116;2022-07-12T09:24:31;99613.13;;;20.34;62.24
18509;BME280;9383;50.928;12.116;2022-07-12T09:27:02;99652.03;;;20.58;62.62
18509;BME280;9383;50.928;12.116;2022-07-12T09:29:29;99599.78;;;20.33;63.15
18509;BME280;9383;50.928;12.116;2022-07-12T09:31:56;99588.25;;;20.31;62.68
18509;BME280;9383;50.928;12.116;2022-07-12T09:34:40;99565.91;;;20.29;59.98
18509;BME280;9383;50.928;12.116;2022-07-12T09:37:26;99598.38;;;20.55;62.63
18509;BME280;9383;50.928;12.116;2022-07-12T09:39:53;99639.19;;;20.76;57.66
18509;BME280;9383;50.928;12.116;2022-07-12T09:42:20;99622.09;;;20.62;57.10
18509;BME280;9383;50.928;12.116;2022-07-12T09:44:46;99570.53;;;20.27;57.95
18509;BME280;9383;50.928;12.116;2022-07-12T09:47:14;99640.66;;;20.67;57.46
18509;BME280;9383;50.928;12.116;2022-07-12T09:49:43;99594.19;;;20.36;57.19
18509;BME280;9383;50.928;12.116;2022-07-12T09:52:22;99631.50;;;20.70;57.80
18509;BME280;9383;50.928;12.116;2022-07-12T09:54:53;99629.91;;;20.80;58.80
18509;BME280;9383;50.928;12.116;2022-07-12T09:57:29;99635.41;;;20.93;59.03
18509;BME280;9383;50.928;12.116;2022-07-12T09:59:58;99633.38;;;21.10;59.43
18509;BME280;9383;50.928;12.116;2022-07-12T10:02:25;99644.00;;;21.26;57.84
18509;BME280;9383;50.928;12.116;2022-07-12T10:04:53;99574.81;;;20.99;57.90
18509;BME280;9383;50.928;12.116;2022-07-12T10:07:19;99650.06;;;21.42;55.82
18509;BME280;9383;50.928;12.116;2022-07-12T10:09:50;99647.75;;;21.36;54.54
18509;BME280;9383;50.928;12.116;2022-07-12T10:12:20;99651.88;;;21.42;55.32
18509;BME280;9383;50.928;12.116;2022-07-12T10:14:49;99648.44;;;21.53;55.71
18509;BME280;9383;50.928;12.116;2022-07-12T10:17:24;99657.31;;;21.68;55.12
18509;BME280;9383;50.928;12.116;2022-07-12T10:20:20;99634.00;;;21.67;52.75
18509;BME280;9383;50.928;12.116;2022-07-12T10:22:55;99604.50;;;21.63;52.95
18509;BME280;9383;50.928;12.116;2022-07-12T10:25:30;99649.97;;;22.09;54.10
18509;BME280;9383;50.928;12.116;2022-07-12T10:27:57;99656.34;;;22.08;50.23
18509;BME280;9383;50.928;12.116;2022-07-12T10:30:26;99652.81;;;21.81;49.18
18509;BME280;9383;50.928;12.116;2022-07-12T10:32:56;99613.25;;;21.41;49.46
18509;BME280;9383;50.928;12.116;2022-07-12T10:35:30;99659.44;;;21.62;50.92
18509;BME280;9383;50.928;12.116;2022-07-12T10:40:40;99572.38;;;21.34;48.93
18509;BME280;9383;50.928;12.116;2022-07-12T10:45:37;99593.63;;;21.52;45.21
18509;BME280;9383;50.928;12.116;2022-07-12T10:48:06;99652.13;;;21.90;46.08
18509;BME280;9383;50.928;12.116;2022-07-12T10:53:34;99660.56;;;21.99;48.21
18509;BME280;9383;50.928;12.116;2022-07-12T10:58:38;99645.75;;;22.04;48.43
18509;BME280;9383;50.928;12.116;2022-07-12T11:01:12;99647.25;;;22.09;47.84
18509;BME280;9383;50.928;12.116;2022-07-12T11:03:45;99616.19;;;21.90;48.05
18509;BME280;9383;50.928;12.116;2022-07-12T11:06:24;99575.47;;;21.80;48.33
18509;BME280;9383;50.928;12.116;2022-07-12T11:08:55;99644.00;;;22.29;47.65
18509;BME280;9383;50.928;12.116;2022-07-12T11:11:25;99620.81;;;22.14;47.21
18509;BME280;9383;50.928;12.116;2022-07-12T11:13:52;99590.28;;;22.00;46.74
18509;BME280;9383;50.928;12.116;2022-07-12T11:16:18;99616.38;;;22.13;46.87
18509;BME280;9383;50.928;12.116;2022-07-12T11:18:45;99655.09;;;22.38;47.42
18509;BME280;9383;50.928;12.116;2022-07-12T11:21:11;99637.59;;;22.30;46.67
18509;BME280;9383;50.928;12.116;2022-07-12T11:23:38;99648.31;;;22.32;45.73
18509;BME280;9383;50.928;12.116;2022-07-12T11:26:09;99645.47;;;22.33;45.92
18509;BME280;9383;50.928;12.116;2022-07-12T11:28:35;99630.16;;;22.34;45.26
18509;BME280;9383;50.928;12.116;2022-07-12T11:31:13;99634.56;;;22.35;45.15
18509;BME280;9383;50.928;12.116;2022-07-12T11:33:48;99616.75;;;22.32;46.03
18509;BME280;9383;50.928;12.116;2022-07-12T11:36:17;99624.19;;;22.42;45.94
18509;BME280;9383;50.928;12.116;2022-07-12T11:38:46;99630.31;;;22.44;44.59
18509;BME280;9383;50.928;12.116;2022-07-12T11:41:14;99618.53;;;22.45;45.01
18509;BME280;9383;50.928;12.116;2022-07-12T11:43:41;99606.03;;;22.31;46.09
18509;BME280;9383;50.928;12.116;2022-07-12T11:46:09;99612.84;;;22.37;43.74
18509;BME280;9383;50.928;12.116;2022-07-12T11:48:36;99557.31;;;22.08;44.72
18509;BME280;9383;50.928;12.116;2022-07-12T11:51:06;99615.31;;;22.53;45.18
18509;BME280;9383;50.928;12.116;2022-07-12T11:53:35;99587.63;;;22.49;45.74
18509;BME280;9383;50.928;12.116;2022-07-12T11:56:04;99619.16;;;22.61;45.76
18509;BME280;9383;50.928;12.116;2022-07-12T11:58:32;99611.81;;;22.64;44.11
18509;BME280;9383;50.928;12.116;2022-07-12T12:01:00;99608.13;;;22.65;44.98
18509;BME280;9383;50.928;12.116;2022-07-12T12:03:26;99599.69;;;22.69;45.05
18509;BME280;9383;50.928;12.116;2022-07-12T12:05:56;99605.84;;;22.71;44.74
18509;BME280;9383;50.928;12.116;2022-07-12T12:08:24;99601.81;;;22.77;45.13
18509;BME280;9383;50.928;12.116;2022-07-12T12:11:00;99598.75;;;22.82;44.85
18509;BME280;9383;50.928;12.116;2022-07-12T12:13:28;99557.78;;;22.64;44.12
18509;BME280;9383;50.928;12.116;2022-07-12T12:16:03;99583.78;;;22.89;45.35
18509;BME280;9383;50.928;12.116;2022-07-12T12:18:41;99514.47;;;22.52;44.96
18509;BME280;9383;50.928;12.116;2022-07-12T12:21:11;99535.50;;;22.60;42.01
18509;BME280;9383;50.928;12.116;2022-07-12T12:23:40;99569.38;;;22.77;42.73
18509;BME280;9383;50.928;12.116;2022-07-12T12:26:19;99586.97;;;22.94;42.56
18509;BME280;9383;50.928;12.116;2022-07-12T12:28:53;99544.75;;;22.69;43.18
18509;BME280;9383;50.928;12.116;2022-07-12T12:31:22;99499.25;;;22.51;43.04
18509;BME280;9383;50.928;12.116;2022-07-12T12:33:53;99512.28;;;22.57;42.38
18509;BME280;9383;50.928;12.116;2022-07-12T12:36:28;99501.47;;;22.57;44.11
18509;BME280;9383;50.928;12.116;2022-07-12T12:39:00;99573.28;;;23.09;44.37
18509;BME280;9383;50.928;12.116;2022-07-12T12:41:29;99578.19;;;23.15;44.12
18509;BME280;9383;50.928;12.116;2022-07-12T12:44:06;99503.72;;;22.75;42.11
18509;BME280;9383;50.928;12.116;2022-07-12T12:46:54;99546.06;;;22.99;41.25
18509;BME280;9383;50.928;12.116;2022-07-12T12:49:46;99570.59;;;23.20;41.83
18509;BME280;9383;50.928;12.116;2022-07-12T12:52:14;99516.94;;;22.91;41.92
18509;BME280;9383;50.928;12.116;2022-07-12T12:54:40;99529.00;;;22.98;41.92
18509;BME280;9383;50.928;12.116;2022-07-12T12:57:07;99564.69;;;23.26;41.80
18509;BME280;9383;50.928;12.116;2022-07-12T12:59:36;99511.91;;;22.98;41.38
18509;BME280;9383;50.928;12.116;2022-07-12T13:02:04;99565.75;;;23.37;43.17
18509;BME280;9383;50.928;12.116;2022-07-12T13:04:32;99568.31;;;23.38;41.39
18509;BME280;9383;50.928;12.116;2022-07-12T13:07:00;99555.72;;;23.26;40.56
18509;BME280;9383;50.928;12.116;2022-07-12T13:09:27;99529.66;;;23.13;41.12
18509;BME280;9383;50.928;12.116;2022-07-12T13:11:55;99547.91;;;23.34;41.64
18509;BME280;9383;50.928;12.116;2022-07-12T13:14:22;99518.69;;;23.15;41.60
18509;BME280;9383;50.928;12.116;2022-07-12T13:16:48;99546.91;;;23.35;41.58